[Closed] PG ATC @ EGBB London

Birmingham Airport - Playground server

  • 8 knot wind from 320˚
  • Visibility of 10 kilometers or more
  • Runway 33 in use
  • Patterns allowed

METAR - EGBB 061050Z 32008KT 9999 SCT018TCU BKN020 BKN030 04/01 Q1006

Coming on, N1MB.

I’m there!

Can you do Southampton so we can have a longer run to BHX

I’m there
Callsign: N1093BA

No sorry, i’m quiting in a few minutes.

Open again :-)